sensor_id;sensor_type;location;lat;lon;timestamp;P1;durP1;ratioP1;P2;durP2;ratioP2
12363;SDS011;6246;50.826;4.712;2022-09-30T00:00:00;2.10;;;1.90;;
12363;SDS011;6246;50.826;4.712;2022-09-30T00:02:26;1.67;;;1.57;;
12363;SDS011;6246;50.826;4.712;2022-09-30T00:04:52;2.60;;;1.80;;
12363;SDS011;6246;50.826;4.712;2022-09-30T00:07:18;1.80;;;1.70;;
12363;SDS011;6246;50.826;4.712;2022-09-30T00:09:44;2.13;;;1.50;;
12363;SDS011;6246;50.826;4.712;2022-09-30T00:12:12;1.93;;;1.47;;
12363;SDS011;6246;50.826;4.712;2022-09-30T00:14:38;2.70;;;2.03;;
12363;SDS011;6246;50.826;4.712;2022-09-30T00:17:04;1.63;;;1.53;;
12363;SDS011;6246;50.826;4.712;2022-09-30T00:19:30;1.70;;;1.60;;
12363;SDS011;6246;50.826;4.712;2022-09-30T00:21:56;1.80;;;1.70;;
12363;SDS011;6246;50.826;4.712;2022-09-30T00:24:22;2.20;;;1.80;;
12363;SDS011;6246;50.826;4.712;2022-09-30T00:26:48;3.33;;;1.77;;
12363;SDS011;6246;50.826;4.712;2022-09-30T00:29:14;1.70;;;1.60;;
12363;SDS011;6246;50.826;4.712;2022-09-30T00:31:40;1.60;;;1.50;;
12363;SDS011;6246;50.826;4.712;2022-09-30T00:34:06;2.50;;;1.60;;
12363;SDS011;6246;50.826;4.712;2022-09-30T00:38:58;2.27;;;1.50;;
12363;SDS011;6246;50.826;4.712;2022-09-30T00:41:24;1.63;;;1.53;;
12363;SDS011;6246;50.826;4.712;2022-09-30T00:43:50;1.90;;;1.80;;
12363;SDS011;6246;50.826;4.712;2022-09-30T00:48:43;1.97;;;1.57;;
12363;SDS011;6246;50.826;4.712;2022-09-30T00:51:10;1.70;;;1.60;;
12363;SDS011;6246;50.826;4.712;2022-09-30T00:53:47;1.43;;;1.20;;
12363;SDS011;6246;50.826;4.712;2022-09-30T00:56:23;1.40;;;1.30;;
12363;SDS011;6246;50.826;4.712;2022-09-30T00:59:00;1.73;;;1.50;;
12363;SDS011;6246;50.826;4.712;2022-09-30T01:01:28;1.73;;;1.60;;
12363;SDS011;6246;50.826;4.712;2022-09-30T01:03:58;3.47;;;1.57;;
12363;SDS011;6246;50.826;4.712;2022-09-30T01:06:25;2.23;;;2.00;;
12363;SDS011;6246;50.826;4.712;2022-09-30T01:08:51;1.73;;;1.50;;
12363;SDS011;6246;50.826;4.712;2022-09-30T01:11:17;3.73;;;1.90;;
12363;SDS011;6246;50.826;4.712;2022-09-30T01:13:44;1.90;;;1.80;;
12363;SDS011;6246;50.826;4.712;2022-09-30T01:19:16;2.00;;;1.83;;
12363;SDS011;6246;50.826;4.712;2022-09-30T01:26:56;1.83;;;1.73;;
12363;SDS011;6246;50.826;4.712;2022-09-30T01:29:47;1.90;;;1.70;;
12363;SDS011;6246;50.826;4.712;2022-09-30T01:42:39;1.97;;;1.53;;
12363;SDS011;6246;50.826;4.712;2022-09-30T01:45:15;1.73;;;1.63;;
12363;SDS011;6246;50.826;4.712;2022-09-30T01:50:11;1.50;;;1.40;;
12363;SDS011;6246;50.826;4.712;2022-09-30T01:55:29;1.90;;;1.80;;
12363;SDS011;6246;50.826;4.712;2022-09-30T01:58:03;2.30;;;2.10;;
12363;SDS011;6246;50.826;4.712;2022-09-30T02:00:31;1.90;;;1.80;;
12363;SDS011;6246;50.826;4.712;2022-09-30T02:03:07;2.23;;;2.03;;
12363;SDS011;6246;50.826;4.712;2022-09-30T02:05:36;3.53;;;1.80;;
12363;SDS011;6246;50.826;4.712;2022-09-30T02:08:06;2.20;;;2.07;;
12363;SDS011;6246;50.826;4.712;2022-09-30T02:10:34;1.87;;;1.77;;
12363;SDS011;6246;50.826;4.712;2022-09-30T02:13:06;2.37;;;2.20;;
12363;SDS011;6246;50.826;4.712;2022-09-30T02:15:35;2.23;;;2.03;;
12363;SDS011;6246;50.826;4.712;2022-09-30T02:18:07;2.00;;;1.90;;
12363;SDS011;6246;50.826;4.712;2022-09-30T02:20:36;2.47;;;2.10;;
12363;SDS011;6246;50.826;4.712;2022-09-30T02:25:34;2.00;;;1.90;;
12363;SDS011;6246;50.826;4.712;2022-09-30T02:28:02;2.93;;;2.27;;
12363;SDS011;6246;50.826;4.712;2022-09-30T02:30:34;1.93;;;1.83;;
12363;SDS011;6246;50.826;4.712;2022-09-30T02:33:02;2.40;;;2.20;;
12363;SDS011;6246;50.826;4.712;2022-09-30T02:35:31;2.00;;;1.80;;
12363;SDS011;6246;50.826;4.712;2022-09-30T02:38:04;2.53;;;2.33;;
12363;SDS011;6246;50.826;4.712;2022-09-30T02:40:34;2.43;;;2.00;;
12363;SDS011;6246;50.826;4.712;2022-09-30T02:43:03;2.40;;;2.20;;
12363;SDS011;6246;50.826;4.712;2022-09-30T02:45:30;3.13;;;2.43;;
12363;SDS011;6246;50.826;4.712;2022-09-30T02:50:30;2.63;;;2.43;;
12363;SDS011;6246;50.826;4.712;2022-09-30T02:58:07;2.50;;;2.40;;
12363;SDS011;6246;50.826;4.712;2022-09-30T03:00:34;2.53;;;2.30;;
12363;SDS011;6246;50.826;4.712;2022-09-30T03:03:04;2.90;;;2.43;;
12363;SDS011;6246;50.826;4.712;2022-09-30T03:05:33;2.47;;;2.27;;
12363;SDS011;6246;50.826;4.712;2022-09-30T03:07:59;3.13;;;2.50;;
12363;SDS011;6246;50.826;4.712;2022-09-30T03:10:26;2.90;;;2.63;;
12363;SDS011;6246;50.826;4.712;2022-09-30T03:15:25;2.77;;;2.47;;
12363;SDS011;6246;50.826;4.712;2022-09-30T03:17:58;2.50;;;2.30;;
12363;SDS011;6246;50.826;4.712;2022-09-30T03:22:57;2.60;;;1.87;;
12363;SDS011;6246;50.826;4.712;2022-09-30T03:28:00;2.50;;;2.30;;
12363;SDS011;6246;50.826;4.712;2022-09-30T03:30:28;2.90;;;2.20;;
12363;SDS011;6246;50.826;4.712;2022-09-30T03:45:55;2.70;;;2.47;;
12363;SDS011;6246;50.826;4.712;2022-09-30T03:48:24;2.70;;;2.50;;
12363;SDS011;6246;50.826;4.712;2022-09-30T03:50:52;2.30;;;2.10;;
12363;SDS011;6246;50.826;4.712;2022-09-30T03:53:18;2.30;;;2.10;;
12363;SDS011;6246;50.826;4.712;2022-09-30T03:55:46;2.37;;;2.17;;
12363;SDS011;6246;50.826;4.712;2022-09-30T03:58:13;2.53;;;2.33;;
12363;SDS011;6246;50.826;4.712;2022-09-30T04:00:40;2.80;;;2.60;;
12363;SDS011;6246;50.826;4.712;2022-09-30T04:03:10;3.23;;;2.70;;
12363;SDS011;6246;50.826;4.712;2022-09-30T04:05:36;2.53;;;2.30;;
12363;SDS011;6246;50.826;4.712;2022-09-30T04:08:02;2.57;;;2.37;;
12363;SDS011;6246;50.826;4.712;2022-09-30T04:10:28;2.60;;;2.40;;
12363;SDS011;6246;50.826;4.712;2022-09-30T04:12:54;2.63;;;2.50;;
12363;SDS011;6246;50.826;4.712;2022-09-30T04:15:21;2.73;;;2.50;;
12363;SDS011;6246;50.826;4.712;2022-09-30T04:17:47;5.27;;;2.57;;
12363;SDS011;6246;50.826;4.712;2022-09-30T04:20:13;2.47;;;2.27;;
12363;SDS011;6246;50.826;4.712;2022-09-30T04:22:39;2.83;;;2.63;;
12363;SDS011;6246;50.826;4.712;2022-09-30T04:25:05;2.77;;;2.57;;
12363;SDS011;6246;50.826;4.712;2022-09-30T04:27:32;3.90;;;2.20;;
12363;SDS011;6246;50.826;4.712;2022-09-30T04:29:57;2.70;;;2.10;;
12363;SDS011;6246;50.826;4.712;2022-09-30T04:32:23;2.70;;;2.50;;
12363;SDS011;6246;50.826;4.712;2022-09-30T04:34:50;5.47;;;2.33;;
12363;SDS011;6246;50.826;4.712;2022-09-30T04:37:17;2.40;;;2.20;;
12363;SDS011;6246;50.826;4.712;2022-09-30T04:39:43;2.43;;;2.23;;
12363;SDS011;6246;50.826;4.712;2022-09-30T04:42:09;3.40;;;2.60;;
12363;SDS011;6246;50.826;4.712;2022-09-30T04:44:35;2.90;;;2.70;;
12363;SDS011;6246;50.826;4.712;2022-09-30T04:47:01;2.53;;;2.30;;
12363;SDS011;6246;50.826;4.712;2022-09-30T04:49:27;2.83;;;2.20;;
12363;SDS011;6246;50.826;4.712;2022-09-30T04:51:54;3.17;;;2.40;;
12363;SDS011;6246;50.826;4.712;2022-09-30T04:54:20;2.77;;;2.57;;
12363;SDS011;6246;50.826;4.712;2022-09-30T04:56:46;2.83;;;2.37;;
12363;SDS011;6246;50.826;4.712;2022-09-30T04:59:12;2.70;;;2.50;;
12363;SDS011;6246;50.826;4.712;2022-09-30T05:01:38;2.57;;;2.37;;
12363;SDS011;6246;50.826;4.712;2022-09-30T05:04:06;2.87;;;2.60;;
12363;SDS011;6246;50.826;4.712;2022-09-30T05:06:32;2.70;;;2.50;;
12363;SDS011;6246;50.826;4.712;2022-09-30T05:08:58;2.40;;;2.20;;
12363;SDS011;6246;50.826;4.712;2022-09-30T05:11:24;2.90;;;2.70;;
12363;SDS011;6246;50.826;4.712;2022-09-30T05:13:51;2.70;;;2.50;;
12363;SDS011;6246;50.826;4.712;2022-09-30T05:16:17;2.60;;;2.40;;
12363;SDS011;6246;50.826;4.712;2022-09-30T05:18:44;2.57;;;2.37;;
12363;SDS011;6246;50.826;4.712;2022-09-30T05:21:11;3.27;;;2.70;;
12363;SDS011;6246;50.826;4.712;2022-09-30T05:23:38;2.97;;;2.53;;
12363;SDS011;6246;50.826;4.712;2022-09-30T05:26:04;2.23;;;2.03;;
12363;SDS011;6246;50.826;4.712;2022-09-30T05:28:31;2.60;;;2.40;;
12363;SDS011;6246;50.826;4.712;2022-09-30T05:30:59;2.67;;;2.20;;
12363;SDS011;6246;50.826;4.712;2022-09-30T05:33:25;2.60;;;2.40;;
12363;SDS011;6246;50.826;4.712;2022-09-30T05:35:53;2.50;;;2.10;;
12363;SDS011;6246;50.826;4.712;2022-09-30T05:38:19;2.33;;;2.23;;
12363;SDS011;6246;50.826;4.712;2022-09-30T05:40:45;2.30;;;2.20;;
12363;SDS011;6246;50.826;4.712;2022-09-30T05:43:11;2.30;;;2.10;;
12363;SDS011;6246;50.826;4.712;2022-09-30T05:45:37;2.50;;;2.30;;
12363;SDS011;6246;50.826;4.712;2022-09-30T05:48:04;2.30;;;2.10;;
12363;SDS011;6246;50.826;4.712;2022-09-30T05:50:31;2.60;;;2.40;;
12363;SDS011;6246;50.826;4.712;2022-09-30T05:52:56;2.50;;;2.30;;
12363;SDS011;6246;50.826;4.712;2022-09-30T05:55:23;2.70;;;2.20;;
12363;SDS011;6246;50.826;4.712;2022-09-30T05:57:49;2.53;;;2.33;;
12363;SDS011;6246;50.826;4.712;2022-09-30T06:00:16;1.97;;;1.87;;
12363;SDS011;6246;50.826;4.712;2022-09-30T06:02:43;2.47;;;2.37;;
12363;SDS011;6246;50.826;4.712;2022-09-30T06:05:09;2.43;;;2.23;;
12363;SDS011;6246;50.826;4.712;2022-09-30T06:07:36;2.13;;;2.03;;
12363;SDS011;6246;50.826;4.712;2022-09-30T06:10:04;2.67;;;2.47;;
12363;SDS011;6246;50.826;4.712;2022-09-30T06:12:31;2.47;;;2.27;;
12363;SDS011;6246;50.826;4.712;2022-09-30T06:14:57;2.63;;;2.20;;
12363;SDS011;6246;50.826;4.712;2022-09-30T06:17:23;2.73;;;2.53;;
12363;SDS011;6246;50.826;4.712;2022-09-30T06:19:49;2.43;;;2.23;;
12363;SDS011;6246;50.826;4.712;2022-09-30T06:22:15;2.40;;;2.20;;
12363;SDS011;6246;50.826;4.712;2022-09-30T06:24:42;2.00;;;1.90;;
12363;SDS011;6246;50.826;4.712;2022-09-30T06:27:08;2.20;;;2.10;;
12363;SDS011;6246;50.826;4.712;2022-09-30T06:29:35;2.60;;;2.40;;
12363;SDS011;6246;50.826;4.712;2022-09-30T06:32:01;2.63;;;2.43;;
12363;SDS011;6246;50.826;4.712;2022-09-30T06:34:27;2.20;;;2.10;;
12363;SDS011;6246;50.826;4.712;2022-09-30T06:36:53;2.10;;;1.90;;
12363;SDS011;6246;50.826;4.712;2022-09-30T06:39:19;2.27;;;2.17;;
12363;SDS011;6246;50.826;4.712;2022-09-30T06:41:45;2.53;;;2.33;;
12363;SDS011;6246;50.826;4.712;2022-09-30T06:44:11;2.50;;;2.30;;
12363;SDS011;6246;50.826;4.712;2022-09-30T06:46:37;2.37;;;2.17;;
12363;SDS011;6246;50.826;4.712;2022-09-30T06:49:04;2.00;;;1.90;;
12363;SDS011;6246;50.826;4.712;2022-09-30T06:51:31;2.40;;;2.23;;
12363;SDS011;6246;50.826;4.712;2022-09-30T06:53:57;2.87;;;2.40;;
12363;SDS011;6246;50.826;4.712;2022-09-30T06:56:24;2.37;;;2.17;;
12363;SDS011;6246;50.826;4.712;2022-09-30T06:58:49;2.80;;;2.60;;
12363;SDS011;6246;50.826;4.712;2022-09-30T07:01:16;2.43;;;2.33;;
12363;SDS011;6246;50.826;4.712;2022-09-30T07:03:42;2.83;;;2.37;;
12363;SDS011;6246;50.826;4.712;2022-09-30T07:06:09;2.70;;;2.40;;
12363;SDS011;6246;50.826;4.712;2022-09-30T07:08:35;2.60;;;2.40;;
12363;SDS011;6246;50.826;4.712;2022-09-30T07:11:09;2.57;;;2.47;;
12363;SDS011;6246;50.826;4.712;2022-09-30T07:13:44;2.70;;;2.50;;
12363;SDS011;6246;50.826;4.712;2022-09-30T07:16:15;2.50;;;2.30;;
12363;SDS011;6246;50.826;4.712;2022-09-30T07:18:41;2.80;;;2.30;;
12363;SDS011;6246;50.826;4.712;2022-09-30T07:21:08;2.73;;;2.53;;
12363;SDS011;6246;50.826;4.712;2022-09-30T07:23:34;2.63;;;2.43;;
12363;SDS011;6246;50.826;4.712;2022-09-30T07:26:02;3.27;;;2.93;;
12363;SDS011;6246;50.826;4.712;2022-09-30T07:28:32;2.63;;;2.43;;
12363;SDS011;6246;50.826;4.712;2022-09-30T07:31:00;2.77;;;2.57;;
12363;SDS011;6246;50.826;4.712;2022-09-30T07:33:27;2.80;;;2.60;;
12363;SDS011;6246;50.826;4.712;2022-09-30T07:35:56;3.00;;;2.70;;
12363;SDS011;6246;50.826;4.712;2022-09-30T07:38:23;2.83;;;2.50;;
12363;SDS011;6246;50.826;4.712;2022-09-30T07:40:53;4.73;;;2.80;;
12363;SDS011;6246;50.826;4.712;2022-09-30T07:43:20;2.80;;;2.53;;
12363;SDS011;6246;50.826;4.712;2022-09-30T07:45:47;2.80;;;2.50;;
12363;SDS011;6246;50.826;4.712;2022-09-30T07:48:13;3.10;;;2.77;;
12363;SDS011;6246;50.826;4.712;2022-09-30T07:51:15;2.80;;;2.60;;
12363;SDS011;6246;50.826;4.712;2022-09-30T07:53:43;2.83;;;2.33;;
12363;SDS011;6246;50.826;4.712;2022-09-30T07:56:09;2.83;;;2.53;;
12363;SDS011;6246;50.826;4.712;2022-09-30T07:58:36;2.40;;;2.20;;
12363;SDS011;6246;50.826;4.712;2022-09-30T08:01:02;2.80;;;2.60;;
12363;SDS011;6246;50.826;4.712;2022-09-30T08:03:31;2.53;;;2.37;;
12363;SDS011;6246;50.826;4.712;2022-09-30T08:06:02;2.40;;;2.20;;
12363;SDS011;6246;50.826;4.712;2022-09-30T08:08:28;3.03;;;2.47;;
12363;SDS011;6246;50.826;4.712;2022-09-30T08:10:57;2.50;;;2.30;;
12363;SDS011;6246;50.826;4.712;2022-09-30T08:13:23;2.43;;;2.23;;
12363;SDS011;6246;50.826;4.712;2022-09-30T08:15:49;2.40;;;2.20;;
12363;SDS011;6246;50.826;4.712;2022-09-30T08:18:15;2.80;;;2.57;;
12363;SDS011;6246;50.826;4.712;2022-09-30T08:20:41;2.47;;;2.27;;
12363;SDS011;6246;50.826;4.712;2022-09-30T08:23:07;2.60;;;2.40;;
12363;SDS011;6246;50.826;4.712;2022-09-30T08:25:33;3.73;;;2.37;;
12363;SDS011;6246;50.826;4.712;2022-09-30T08:27:59;2.40;;;2.20;;
12363;SDS011;6246;50.826;4.712;2022-09-30T08:30:25;2.70;;;2.50;;
12363;SDS011;6246;50.826;4.712;2022-09-30T08:32:51;2.87;;;2.53;;
12363;SDS011;6246;50.826;4.712;2022-09-30T08:35:17;2.47;;;2.27;;
12363;SDS011;6246;50.826;4.712;2022-09-30T08:37:43;2.67;;;2.47;;
12363;SDS011;6246;50.826;4.712;2022-09-30T08:40:16;3.07;;;2.70;;
12363;SDS011;6246;50.826;4.712;2022-09-30T08:45:21;3.13;;;2.03;;
12363;SDS011;6246;50.826;4.712;2022-09-30T08:53:10;2.60;;;2.40;;
12363;SDS011;6246;50.826;4.712;2022-09-30T08:55:39;2.60;;;2.40;;
12363;SDS011;6246;50.826;4.712;2022-09-30T08:58:10;3.00;;;2.63;;
12363;SDS011;6246;50.826;4.712;2022-09-30T09:00:40;2.60;;;2.40;;
12363;SDS011;6246;50.826;4.712;2022-09-30T09:03:08;2.87;;;2.67;;
12363;SDS011;6246;50.826;4.712;2022-09-30T09:05:46;2.53;;;2.33;;
12363;SDS011;6246;50.826;4.712;2022-09-30T09:08:18;3.10;;;2.70;;
12363;SDS011;6246;50.826;4.712;2022-09-30T09:10:45;2.80;;;2.60;;
12363;SDS011;6246;50.826;4.712;2022-09-30T09:13:18;2.80;;;2.60;;
12363;SDS011;6246;50.826;4.712;2022-09-30T09:16:01;2.77;;;2.57;;
12363;SDS011;6246;50.826;4.712;2022-09-30T09:18:37;2.53;;;2.40;;
12363;SDS011;6246;50.826;4.712;2022-09-30T09:21:16;2.90;;;2.60;;
12363;SDS011;6246;50.826;4.712;2022-09-30T09:23:44;3.57;;;2.57;;
12363;SDS011;6246;50.826;4.712;2022-09-30T09:26:11;2.20;;;2.10;;
12363;SDS011;6246;50.826;4.712;2022-09-30T09:28:40;2.77;;;2.57;;
12363;SDS011;6246;50.826;4.712;2022-09-30T09:31:11;3.30;;;3.00;;
12363;SDS011;6246;50.826;4.712;2022-09-30T09:33:40;2.20;;;2.10;;
12363;SDS011;6246;50.826;4.712;2022-09-30T09:36:12;2.73;;;2.53;;
12363;SDS011;6246;50.826;4.712;2022-09-30T09:49:24;3.03;;;2.73;;
12363;SDS011;6246;50.826;4.712;2022-09-30T09:54:24;3.53;;;2.50;;
12363;SDS011;6246;50.826;4.712;2022-09-30T09:56:55;3.00;;;2.70;;
12363;SDS011;6246;50.826;4.712;2022-09-30T09:59:20;2.60;;;2.40;;
12363;SDS011;6246;50.826;4.712;2022-09-30T10:01:48;2.50;;;2.30;;
12363;SDS011;6246;50.826;4.712;2022-09-30T10:04:24;2.80;;;2.60;;
12363;SDS011;6246;50.826;4.712;2022-09-30T10:06:55;2.80;;;2.43;;
12363;SDS011;6246;50.826;4.712;2022-09-30T10:14:32;2.47;;;2.27;;
12363;SDS011;6246;50.826;4.712;2022-09-30T10:16:59;3.60;;;2.87;;
12363;SDS011;6246;50.826;4.712;2022-09-30T10:19:26;2.53;;;2.33;;
12363;SDS011;6246;50.826;4.712;2022-09-30T10:24:36;2.27;;;2.07;;
12363;SDS011;6246;50.826;4.712;2022-09-30T10:27:02;2.80;;;2.43;;
12363;SDS011;6246;50.826;4.712;2022-09-30T10:29:29;2.40;;;2.20;;
12363;SDS011;6246;50.826;4.712;2022-09-30T10:31:59;3.20;;;2.60;;
12363;SDS011;6246;50.826;4.712;2022-09-30T10:34:32;2.33;;;2.13;;
12363;SDS011;6246;50.826;4.712;2022-09-30T10:37:00;2.60;;;2.10;;
12363;SDS011;6246;50.826;4.712;2022-09-30T10:39:27;2.87;;;2.50;;
12363;SDS011;6246;50.826;4.712;2022-09-30T10:42:01;2.80;;;2.17;;
12363;SDS011;6246;50.826;4.712;2022-09-30T10:44:28;3.40;;;2.47;;
12363;SDS011;6246;50.826;4.712;2022-09-30T10:46:58;2.67;;;2.17;;
12363;SDS011;6246;50.826;4.712;2022-09-30T10:49:26;3.03;;;2.10;;
12363;SDS011;6246;50.826;4.712;2022-09-30T10:51:54;2.57;;;2.20;;
12363;SDS011;6246;50.826;4.712;2022-09-30T10:54:43;3.13;;;2.40;;
12363;SDS011;6246;50.826;4.712;2022-09-30T10:57:17;2.30;;;2.10;;
12363;SDS011;6246;50.826;4.712;2022-09-30T10:59:44;2.43;;;2.10;;
12363;SDS011;6246;50.826;4.712;2022-09-30T11:04:38;2.07;;;1.87;;
12363;SDS011;6246;50.826;4.712;2022-09-30T11:07:48;2.37;;;2.07;;
12363;SDS011;6246;50.826;4.712;2022-09-30T11:10:03;2.87;;;2.03;;
12363;SDS011;6246;50.826;4.712;2022-09-30T11:12:38;3.33;;;2.30;;
12363;SDS011;6246;50.826;4.712;2022-09-30T11:15:18;2.63;;;2.23;;
12363;SDS011;6246;50.826;4.712;2022-09-30T11:18:06;2.83;;;2.27;;
12363;SDS011;6246;50.826;4.712;2022-09-30T11:20:40;2.47;;;2.27;;
12363;SDS011;6246;50.826;4.712;2022-09-30T11:23:27;2.23;;;2.00;;
12363;SDS011;6246;50.826;4.712;2022-09-30T11:31:10;2.43;;;2.23;;
12363;SDS011;6246;50.826;4.712;2022-09-30T11:33:41;3.03;;;2.33;;
12363;SDS011;6246;50.826;4.712;2022-09-30T11:36:18;2.03;;;1.83;;
12363;SDS011;6246;50.826;4.712;2022-09-30T11:41:22;2.10;;;1.90;;
12363;SDS011;6246;50.826;4.712;2022-09-30T11:43:54;3.03;;;2.07;;
12363;SDS011;6246;50.826;4.712;2022-09-30T11:59:22;2.13;;;2.03;;
12363;SDS011;6246;50.826;4.712;2022-09-30T12:01:50;2.10;;;2.00;;
12363;SDS011;6246;50.826;4.712;2022-09-30T12:04:18;3.00;;;1.90;;
12363;SDS011;6246;50.826;4.712;2022-09-30T12:06:48;2.07;;;1.87;;
12363;SDS011;6246;50.826;4.712;2022-09-30T12:09:17;2.30;;;2.10;;
12363;SDS011;6246;50.826;4.712;2022-09-30T12:11:49;2.07;;;1.90;;
12363;SDS011;6246;50.826;4.712;2022-09-30T12:14:22;1.50;;;1.40;;
12363;SDS011;6246;50.826;4.712;2022-09-30T12:16:49;1.83;;;1.73;;
12363;SDS011;6246;50.826;4.712;2022-09-30T12:19:18;2.30;;;2.13;;
12363;SDS011;6246;50.826;4.712;2022-09-30T12:26:49;1.83;;;1.50;;
12363;SDS011;6246;50.826;4.712;2022-09-30T12:29:17;2.10;;;1.73;;
12363;SDS011;6246;50.826;4.712;2022-09-30T12:42:18;1.48;;;1.38;;
12363;SDS011;6246;50.826;4.712;2022-09-30T12:44:58;2.07;;;1.60;;
12363;SDS011;6246;50.826;4.712;2022-09-30T12:47:30;1.98;;;1.85;;
12363;SDS011;6246;50.826;4.712;2022-09-30T12:49:57;1.40;;;1.30;;
12363;SDS011;6246;50.826;4.712;2022-09-30T12:52:32;2.10;;;1.90;;
12363;SDS011;6246;50.826;4.712;2022-09-30T12:55:00;1.77;;;1.67;;
12363;SDS011;6246;50.826;4.712;2022-09-30T12:57:30;1.50;;;1.40;;
12363;SDS011;6246;50.826;4.712;2022-09-30T13:00:39;2.38;;;1.88;;
12363;SDS011;6246;50.826;4.712;2022-09-30T13:02:47;2.00;;;1.90;;
12363;SDS011;6246;50.826;4.712;2022-09-30T13:26:02;1.40;;;1.30;;
12363;SDS011;6246;50.826;4.712;2022-09-30T13:28:29;1.80;;;1.60;;
12363;SDS011;6246;50.826;4.712;2022-09-30T13:31:12;1.60;;;1.50;;
12363;SDS011;6246;50.826;4.712;2022-09-30T13:33:41;1.40;;;1.30;;
12363;SDS011;6246;50.826;4.712;2022-09-30T13:36:14;1.50;;;1.40;;
12363;SDS011;6246;50.826;4.712;2022-09-30T13:38:41;1.73;;;1.57;;
12363;SDS011;6246;50.826;4.712;2022-09-30T13:41:13;1.60;;;1.50;;
12363;SDS011;6246;50.826;4.712;2022-09-30T13:43:42;1.70;;;1.30;;
12363;SDS011;6246;50.826;4.712;2022-09-30T13:46:16;1.40;;;1.30;;
12363;SDS011;6246;50.826;4.712;2022-09-30T13:48:47;1.50;;;1.40;;
12363;SDS011;6246;50.826;4.712;2022-09-30T13:51:15;1.57;;;1.47;;
12363;SDS011;6246;50.826;4.712;2022-09-30T13:53:45;1.53;;;1.40;;
12363;SDS011;6246;50.826;4.712;2022-09-30T13:56:17;2.20;;;1.60;;
12363;SDS011;6246;50.826;4.712;2022-09-30T14:22:29;1.47;;;1.37;;
12363;SDS011;6246;50.826;4.712;2022-09-30T14:24:57;1.37;;;1.27;;
12363;SDS011;6246;50.826;4.712;2022-09-30T14:32:52;1.67;;;1.40;;
12363;SDS011;6246;50.826;4.712;2022-09-30T14:35:20;1.37;;;1.27;;
12363;SDS011;6246;50.826;4.712;2022-09-30T14:37:51;1.40;;;1.30;;
12363;SDS011;6246;50.826;4.712;2022-09-30T14:40:19;1.70;;;1.60;;
12363;SDS011;6246;50.826;4.712;2022-09-30T14:42:48;1.20;;;1.10;;
12363;SDS011;6246;50.826;4.712;2022-09-30T14:45:19;2.73;;;1.70;;
12363;SDS011;6246;50.826;4.712;2022-09-30T14:47:46;2.00;;;1.20;;
12363;SDS011;6246;50.826;4.712;2022-09-30T14:50:17;1.50;;;1.40;;
12363;SDS011;6246;50.826;4.712;2022-09-30T14:52:45;2.53;;;1.30;;
12363;SDS011;6246;50.826;4.712;2022-09-30T14:57:43;1.73;;;1.63;;
12363;SDS011;6246;50.826;4.712;2022-09-30T15:00:31;1.37;;;1.27;;
12363;SDS011;6246;50.826;4.712;2022-09-30T15:02:57;1.47;;;1.37;;
12363;SDS011;6246;50.826;4.712;2022-09-30T15:05:24;2.07;;;1.23;;
12363;SDS011;6246;50.826;4.712;2022-09-30T15:07:50;1.50;;;1.40;;
12363;SDS011;6246;50.826;4.712;2022-09-30T15:10:19;1.50;;;1.17;;
12363;SDS011;6246;50.826;4.712;2022-09-30T15:12:46;2.23;;;1.20;;
12363;SDS011;6246;50.826;4.712;2022-09-30T15:15:32;1.23;;;1.13;;
12363;SDS011;6246;50.826;4.712;2022-09-30T15:17:59;1.33;;;1.23;;
12363;SDS011;6246;50.826;4.712;2022-09-30T15:20:29;1.10;;;1.10;;
12363;SDS011;6246;50.826;4.712;2022-09-30T15:22:56;1.30;;;1.07;;
12363;SDS011;6246;50.826;4.712;2022-09-30T15:25:25;1.43;;;1.33;;
12363;SDS011;6246;50.826;4.712;2022-09-30T15:27:52;1.20;;;1.10;;
12363;SDS011;6246;50.826;4.712;2022-09-30T15:32:44;1.23;;;1.13;;
12363;SDS011;6246;50.826;4.712;2022-09-30T15:35:15;1.40;;;1.10;;
12363;SDS011;6246;50.826;4.712;2022-09-30T15:37:43;1.17;;;1.10;;
12363;SDS011;6246;50.826;4.712;2022-09-30T15:40:17;1.13;;;1.10;;
12363;SDS011;6246;50.826;4.712;2022-09-30T15:43:03;1.23;;;1.13;;
12363;SDS011;6246;50.826;4.712;2022-09-30T15:45:31;1.10;;;1.10;;
12363;SDS011;6246;50.826;4.712;2022-09-30T15:47:59;1.03;;;1.03;;
12363;SDS011;6246;50.826;4.712;2022-09-30T15:53:15;1.53;;;1.40;;
12363;SDS011;6246;50.826;4.712;2022-09-30T15:58:35;1.10;;;1.00;;
12363;SDS011;6246;50.826;4.712;2022-09-30T16:01:08;1.20;;;0.90;;
12363;SDS011;6246;50.826;4.712;2022-09-30T16:03:35;1.17;;;1.10;;
12363;SDS011;6246;50.826;4.712;2022-09-30T16:06:05;1.47;;;1.20;;
12363;SDS011;6246;50.826;4.712;2022-09-30T16:08:35;1.20;;;1.10;;
12363;SDS011;6246;50.826;4.712;2022-09-30T16:11:04;0.70;;;0.70;;
12363;SDS011;6246;50.826;4.712;2022-09-30T16:13:30;1.13;;;1.03;;
12363;SDS011;6246;50.826;4.712;2022-09-30T16:15:57;1.30;;;1.20;;
12363;SDS011;6246;50.826;4.712;2022-09-30T16:18:24;1.27;;;1.17;;
12363;SDS011;6246;50.826;4.712;2022-09-30T16:20:58;1.00;;;0.90;;
12363;SDS011;6246;50.826;4.712;2022-09-30T16:23:29;1.10;;;1.10;;
12363;SDS011;6246;50.826;4.712;2022-09-30T16:28:57;0.93;;;0.80;;
12363;SDS011;6246;50.826;4.712;2022-09-30T16:31:27;2.27;;;1.13;;
12363;SDS011;6246;50.826;4.712;2022-09-30T16:33:56;1.10;;;1.00;;
12363;SDS011;6246;50.826;4.712;2022-09-30T16:36:22;1.47;;;1.37;;
12363;SDS011;6246;50.826;4.712;2022-09-30T16:38:48;1.20;;;1.10;;
12363;SDS011;6246;50.826;4.712;2022-09-30T16:41:14;1.40;;;1.30;;
12363;SDS011;6246;50.826;4.712;2022-09-30T16:43:40;0.87;;;0.87;;
12363;SDS011;6246;50.826;4.712;2022-09-30T16:46:07;1.20;;;1.10;;
12363;SDS011;6246;50.826;4.712;2022-09-30T16:48:34;0.90;;;0.90;;
12363;SDS011;6246;50.826;4.712;2022-09-30T16:51:04;1.20;;;1.10;;
12363;SDS011;6246;50.826;4.712;2022-09-30T16:53:31;0.90;;;0.90;;
12363;SDS011;6246;50.826;4.712;2022-09-30T16:55:57;1.40;;;1.30;;
12363;SDS011;6246;50.826;4.712;2022-09-30T16:58:24;0.70;;;0.70;;
12363;SDS011;6246;50.826;4.712;2022-09-30T17:00:50;1.17;;;1.00;;
12363;SDS011;6246;50.826;4.712;2022-09-30T17:03:17;0.90;;;0.90;;
12363;SDS011;6246;50.826;4.712;2022-09-30T17:05:45;1.00;;;0.90;;
12363;SDS011;6246;50.826;4.712;2022-09-30T17:08:17;1.93;;;1.00;;
12363;SDS011;6246;50.826;4.712;2022-09-30T17:10:43;0.80;;;0.80;;
12363;SDS011;6246;50.826;4.712;2022-09-30T17:13:11;1.60;;;0.90;;
12363;SDS011;6246;50.826;4.712;2022-09-30T17:15:40;0.77;;;0.77;;
12363;SDS011;6246;50.826;4.712;2022-09-30T17:18:07;1.30;;;1.20;;
12363;SDS011;6246;50.826;4.712;2022-09-30T17:20:34;1.60;;;1.30;;
12363;SDS011;6246;50.826;4.712;2022-09-30T17:23:00;1.30;;;1.10;;
12363;SDS011;6246;50.826;4.712;2022-09-30T17:25:27;1.07;;;1.07;;
12363;SDS011;6246;50.826;4.712;2022-09-30T17:27:52;0.90;;;0.90;;
12363;SDS011;6246;50.826;4.712;2022-09-30T17:30:19;1.07;;;0.97;;
12363;SDS011;6246;50.826;4.712;2022-09-30T17:32:45;0.90;;;0.90;;
12363;SDS011;6246;50.826;4.712;2022-09-30T17:35:12;0.80;;;0.80;;
12363;SDS011;6246;50.826;4.712;2022-09-30T17:37:38;0.80;;;0.80;;
12363;SDS011;6246;50.826;4.712;2022-09-30T17:40:05;0.87;;;0.70;;
12363;SDS011;6246;50.826;4.712;2022-09-30T17:42:54;0.77;;;0.77;;
12363;SDS011;6246;50.826;4.712;2022-09-30T17:45:38;1.07;;;1.00;;
12363;SDS011;6246;50.826;4.712;2022-09-30T17:48:05;1.07;;;1.07;;
12363;SDS011;6246;50.826;4.712;2022-09-30T17:50:33;0.93;;;0.93;;
12363;SDS011;6246;50.826;4.712;2022-09-30T17:52:59;1.07;;;1.00;;
12363;SDS011;6246;50.826;4.712;2022-09-30T17:55:26;1.00;;;0.90;;
12363;SDS011;6246;50.826;4.712;2022-09-30T17:57:53;1.17;;;0.97;;
12363;SDS011;6246;50.826;4.712;2022-09-30T18:00:20;0.97;;;0.80;;
12363;SDS011;6246;50.826;4.712;2022-09-30T18:02:46;1.83;;;0.90;;
12363;SDS011;6246;50.826;4.712;2022-09-30T18:05:12;1.43;;;0.90;;
12363;SDS011;6246;50.826;4.712;2022-09-30T18:07:39;1.03;;;0.90;;
12363;SDS011;6246;50.826;4.712;2022-09-30T18:10:05;1.30;;;1.20;;
12363;SDS011;6246;50.826;4.712;2022-09-30T18:12:32;1.10;;;1.10;;
12363;SDS011;6246;50.826;4.712;2022-09-30T18:14:59;1.47;;;0.80;;
12363;SDS011;6246;50.826;4.712;2022-09-30T18:17:25;0.80;;;0.80;;
12363;SDS011;6246;50.826;4.712;2022-09-30T18:19:52;1.10;;;0.90;;